createdAt,value
2023-08-11T00:01:40.565Z,94.40
2023-08-11T00:04:42.475Z,94.43
2023-08-11T00:07:46.242Z,93.80
2023-08-11T00:10:48.287Z,94.76
2023-08-11T00:13:50.687Z,95.66
2023-08-11T00:16:52.500Z,95.11
2023-08-11T00:19:54.353Z,94.79
2023-08-11T00:22:56.573Z,94.12
2023-08-11T00:25:58.710Z,94.00
2023-08-11T00:29:00.616Z,93.77
2023-08-11T00:32:02.568Z,93.22
2023-08-11T00:35:05.274Z,93.15
2023-08-11T00:38:07.274Z,93.65
2023-08-11T00:41:09.310Z,93.16
2023-08-11T00:44:11.354Z,93.52
2023-08-11T00:47:13.570Z,93.70
2023-08-11T00:50:18.734Z,94.03
2023-08-11T00:53:21.270Z,94.06
2023-08-11T00:56:24.330Z,94.03
2023-08-11T00:59:27.087Z,94.47
2023-08-11T01:02:29.108Z,94.38
2023-08-11T01:05:35.703Z,95.51
2023-08-11T01:09:19.868Z,95.31
2023-08-11T01:12:24.966Z,95.71
2023-08-11T01:15:41.585Z,96.40
2023-08-11T01:18:44.152Z,97.50
2023-08-11T01:21:47.582Z,98.09
2023-08-11T01:24:50.147Z,97.53
2023-08-11T01:28:00.140Z,98.58
2023-08-11T01:31:02.190Z,98.66
2023-08-11T01:34:04.443Z,99.33
2023-08-11T01:37:06.742Z,99.28
2023-08-11T01:40:12.290Z,99.06
2023-08-11T01:43:16.437Z,98.77
2023-08-11T01:46:19.149Z,98.12
2023-08-11T01:49:24.208Z,98.16
2023-08-11T01:52:27.363Z,97.51
2023-08-11T01:55:30.228Z,97.30
2023-08-11T01:58:32.666Z,97.34
2023-08-11T02:01:34.700Z,97.15
2023-08-11T02:04:36.871Z,97.02
2023-08-11T02:07:39.554Z,97.42
2023-08-11T02:10:41.512Z,97.22
2023-08-11T02:13:44.490Z,97.26
2023-08-11T02:16:46.916Z,97.38
2023-08-11T02:19:52.015Z,97.04
2023-08-11T02:22:55.156Z,96.80
2023-08-11T02:25:58.173Z,96.70
2023-08-11T02:29:00.129Z,96.42
2023-08-11T02:32:04.635Z,96.70
2023-08-11T02:35:07.384Z,96.69
2023-08-11T02:38:09.974Z,96.03
2023-08-11T02:41:12.404Z,95.62
2023-08-11T02:44:14.626Z,95.67
2023-08-11T02:47:16.583Z,95.07
2023-08-11T02:50:19.105Z,95.51
2023-08-11T02:53:21.132Z,95.20
2023-08-11T02:56:23.116Z,95.22
2023-08-11T02:59:25.079Z,94.84
2023-08-11T03:02:27.606Z,95.03
2023-08-11T03:05:29.580Z,94.56
2023-08-11T03:08:33.012Z,94.90
2023-08-11T03:11:35.979Z,94.97
2023-08-11T03:14:37.977Z,94.47
2023-08-11T03:17:40.102Z,94.26
2023-08-11T03:20:43.489Z,94.21
2023-08-11T03:23:45.386Z,94.10
2023-08-11T03:26:47.347Z,94.57
2023-08-11T03:29:49.429Z,94.40
2023-08-11T03:32:52.748Z,94.68
2023-08-11T03:35:56.316Z,94.93
2023-08-11T03:38:58.335Z,95.27
2023-08-11T03:42:01.343Z,94.87
2023-08-11T03:45:03.978Z,94.82
2023-08-11T03:48:07.406Z,95.01
2023-08-11T03:51:10.822Z,94.80
2023-08-11T03:54:13.219Z,94.83
2023-08-11T03:57:15.804Z,95.22
2023-08-11T04:00:20.869Z,95.19
2023-08-11T04:03:33.592Z,94.87
2023-08-11T04:06:35.570Z,96.02
2023-08-11T04:09:41.166Z,96.12
2023-08-11T04:12:43.093Z,96.00
2023-08-11T04:15:48.904Z,96.38
2023-08-11T04:18:52.032Z,96.01
2023-08-11T04:21:54.013Z,95.63
2023-08-11T04:24:56.615Z,95.49
2023-08-11T04:28:00.944Z,96.93
2023-08-11T04:31:03.080Z,96.79
2023-08-11T04:34:07.749Z,96.22
2023-08-11T04:37:09.677Z,96.87
2023-08-11T04:40:14.988Z,96.10
2023-08-11T04:43:20.143Z,95.43
2023-08-11T04:46:22.692Z,95.53
2023-08-11T04:49:25.329Z,95.55
2023-08-11T04:52:28.283Z,95.96
2023-08-11T04:55:32.381Z,95.82
2023-08-11T04:58:39.391Z,96.13
2023-08-11T05:01:41.473Z,96.45
2023-08-11T05:04:43.620Z,96.65
2023-08-11T05:07:45.562Z,95.96
2023-08-11T05:10:47.389Z,95.86
2023-08-11T05:13:49.270Z,96.17
2023-08-11T05:16:51.340Z,95.53
2023-08-11T05:19:53.296Z,96.07
2023-08-11T05:22:55.279Z,96.36
2023-08-11T05:25:57.131Z,96.69
2023-08-11T05:28:59.289Z,95.56
2023-08-11T05:32:01.226Z,95.46
2023-08-11T05:35:03.901Z,95.42
2023-08-11T05:38:06.457Z,97.21
2023-08-11T05:41:08.345Z,96.04
2023-08-11T05:44:10.336Z,96.82
2023-08-11T05:47:12.501Z,97.46
2023-08-11T05:50:14.575Z,96.34
2023-08-11T05:53:17.109Z,96.14
2023-08-11T05:56:18.955Z,96.20
2023-08-11T05:59:23.779Z,95.86
2023-08-11T06:02:25.694Z,95.02
2023-08-11T06:05:28.171Z,94.90
2023-08-11T06:08:30.082Z,94.46
2023-08-11T06:11:32.103Z,93.58
2023-08-11T06:14:34.672Z,93.90
2023-08-11T06:17:37.772Z,94.30
2023-08-11T06:20:42.119Z,94.00
2023-08-11T06:23:45.220Z,94.09
2023-08-11T06:26:47.202Z,94.55
2023-08-11T06:29:49.480Z,94.67
2023-08-11T06:32:51.490Z,93.51
2023-08-11T06:35:54.247Z,93.13
2023-08-11T06:38:56.140Z,92.84
2023-08-11T06:41:58.113Z,92.58
2023-08-11T06:45:19.973Z,92.64
2023-08-11T06:48:21.906Z,92.10
2023-08-11T06:51:23.790Z,90.74
2023-08-11T06:54:25.707Z,90.68
2023-08-11T06:57:27.713Z,89.85
2023-08-11T07:00:29.602Z,89.80
2023-08-11T07:03:34.623Z,87.75
2023-08-11T07:06:36.963Z,87.23
2023-08-11T07:09:38.799Z,86.51
2023-08-11T07:12:40.765Z,85.84
2023-08-11T07:15:43.739Z,86.22
2023-08-11T07:18:45.826Z,84.69
2023-08-11T07:21:47.761Z,83.96
2023-08-11T07:24:49.641Z,83.01
2023-08-11T07:27:51.485Z,80.18
2023-08-11T07:30:53.414Z,80.17
2023-08-11T07:33:55.319Z,79.29
2023-08-11T07:36:57.270Z,80.40
2023-08-11T07:39:59.184Z,78.94
2023-08-11T07:43:01.294Z,78.28
2023-08-11T07:46:03.187Z,75.52
2023-08-11T07:49:05.317Z,77.10
2023-08-11T07:52:07.123Z,75.91
2023-08-11T07:55:09.437Z,77.47
2023-08-11T07:58:11.889Z,76.65
2023-08-11T08:01:13.896Z,76.11
2023-08-11T08:04:15.979Z,76.44
2023-08-11T08:07:17.854Z,77.17
2023-08-11T08:10:21.468Z,77.17
2023-08-11T08:13:23.510Z,78.00
2023-08-11T08:16:25.546Z,78.20
2023-08-11T08:19:27.357Z,77.92
2023-08-11T08:22:30.227Z,78.03
2023-08-11T08:25:32.213Z,77.21
2023-08-11T08:28:34.525Z,77.67
2023-08-11T08:31:37.039Z,77.95
2023-08-11T08:34:39.155Z,77.85
2023-08-11T08:37:41.103Z,78.04
2023-08-11T08:40:44.178Z,78.64
2023-08-11T08:43:47.586Z,78.87
2023-08-11T08:46:53.241Z,78.98
2023-08-11T08:49:57.254Z,79.49
2023-08-11T08:53:02.321Z,79.57
2023-08-11T08:56:06.159Z,80.25
2023-08-11T08:59:09.382Z,81.17
2023-08-11T09:02:13.780Z,82.03
2023-08-11T09:05:16.369Z,82.10
2023-08-11T09:08:18.299Z,82.00
2023-08-11T09:11:22.882Z,82.66
2023-08-11T09:14:25.035Z,83.29
2023-08-11T09:17:27.106Z,83.57
2023-08-11T09:20:30.405Z,83.94
2023-08-11T09:23:34.147Z,83.81
2023-08-11T09:26:36.112Z,84.69
2023-08-11T09:29:38.477Z,85.54
2023-08-11T09:32:40.659Z,86.18
2023-08-11T09:35:43.078Z,87.20
2023-08-11T09:38:45.732Z,87.81
2023-08-11T09:41:49.315Z,87.74
2023-08-11T09:44:52.509Z,88.09
2023-08-11T09:47:54.383Z,87.37
2023-08-11T09:50:57.768Z,88.47
2023-08-11T09:54:04.165Z,88.07
2023-08-11T09:57:07.194Z,88.35
2023-08-11T10:00:15.475Z,88.62
2023-08-11T10:03:21.357Z,89.47
2023-08-11T10:06:28.090Z,90.40
2023-08-11T10:09:30.490Z,90.68
2023-08-11T10:12:34.039Z,89.94
2023-08-11T10:15:36.362Z,90.09
2023-08-11T10:18:38.287Z,90.71
2023-08-11T10:21:40.619Z,90.01
2023-08-11T10:24:44.730Z,90.42
2023-08-11T10:27:47.005Z,91.36
2023-08-11T10:31:02.535Z,92.43
2023-08-11T10:34:07.766Z,92.37
2023-08-11T10:37:09.883Z,93.64
2023-08-11T10:40:12.013Z,92.82
2023-08-11T10:43:16.448Z,93.63
2023-08-11T10:46:28.994Z,93.01
2023-08-11T10:49:35.098Z,93.14
2023-08-11T10:52:36.991Z,92.79
2023-08-11T10:55:40.401Z,92.19
2023-08-11T10:58:44.264Z,92.27
2023-08-11T11:01:47.167Z,92.67
2023-08-11T11:04:49.038Z,92.75
2023-08-11T11:07:52.387Z,93.06
2023-08-11T11:10:54.365Z,93.06
2023-08-11T11:13:56.149Z,92.78
2023-08-11T11:17:00.446Z,92.29
2023-08-11T11:20:03.577Z,91.80
2023-08-11T11:23:06.191Z,92.30
2023-08-11T11:26:07.966Z,92.90
2023-08-11T11:29:09.930Z,92.15
2023-08-11T11:32:13.006Z,92.13
2023-08-11T11:35:15.028Z,92.75
2023-08-11T11:38:16.993Z,92.16
2023-08-11T11:41:19.314Z,93.02
2023-08-11T11:44:21.481Z,92.11
2023-08-11T11:47:23.535Z,92.31
2023-08-11T11:50:26.955Z,92.82
2023-08-11T11:53:29.775Z,92.77
2023-08-11T11:56:31.786Z,93.56
2023-08-11T11:59:35.100Z,93.09
2023-08-11T12:02:37.070Z,92.91
2023-08-11T12:05:39.096Z,92.42
2023-08-11T12:12:03.480Z,92.55
2023-08-11T12:15:08.736Z,92.41
2023-08-11T12:18:12.292Z,92.74
2023-08-11T12:21:14.270Z,92.02
2023-08-11T12:24:16.158Z,92.97
2023-08-11T12:27:18.053Z,93.21
2023-08-11T12:30:20.188Z,93.66
2023-08-11T12:33:22.627Z,94.80
2023-08-11T12:36:24.586Z,96.55
2023-08-11T12:39:26.533Z,95.23
2023-08-11T12:43:33.977Z,95.42
2023-08-11T12:46:37.430Z,94.70
2023-08-11T12:49:39.633Z,94.98
2023-08-11T12:52:41.631Z,94.81
2023-08-11T12:55:44.043Z,94.86
2023-08-11T12:58:45.961Z,94.65
2023-08-11T13:01:48.061Z,93.64
2023-08-11T13:04:50.009Z,93.77
2023-08-11T13:07:51.956Z,93.20
2023-08-11T13:10:56.818Z,92.74
2023-08-11T13:13:58.767Z,91.86
2023-08-11T13:17:00.752Z,91.96
2023-08-11T13:20:07.636Z,91.10
2023-08-11T13:23:09.777Z,91.11
2023-08-11T13:26:13.472Z,91.41
2023-08-11T13:29:15.369Z,91.64
2023-08-11T13:32:17.323Z,92.04
2023-08-11T13:35:19.250Z,92.22
2023-08-11T13:38:21.392Z,92.33
2023-08-11T13:41:23.245Z,92.11
2023-08-11T13:44:25.167Z,92.01
2023-08-11T13:47:27.713Z,91.75
2023-08-11T13:50:29.810Z,91.55
2023-08-11T13:53:31.778Z,90.99
2023-08-11T13:56:36.356Z,90.64
2023-08-11T13:59:38.282Z,90.02
2023-08-11T14:02:40.201Z,89.39
2023-08-11T14:05:42.514Z,89.16
2023-08-11T14:08:44.572Z,88.70
2023-08-11T14:11:46.858Z,89.09
2023-08-11T14:14:49.126Z,89.40
2023-08-11T14:17:50.936Z,89.60
2023-08-11T14:20:52.905Z,89.48
2023-08-11T14:23:55.962Z,89.33
2023-08-11T14:26:58.101Z,89.67
2023-08-11T14:29:59.968Z,90.20
2023-08-11T14:33:01.987Z,90.52
2023-08-11T14:39:13.884Z,90.71
2023-08-11T14:42:15.942Z,90.74
2023-08-11T14:45:17.864Z,90.92
2023-08-11T14:48:20.666Z,94.02
2023-08-11T14:51:22.704Z,93.05
2023-08-11T14:54:27.775Z,93.13
2023-08-11T14:57:29.982Z,93.98
2023-08-11T15:00:33.337Z,94.39
2023-08-11T15:03:35.309Z,94.11
2023-08-11T15:06:37.340Z,94.78
2023-08-11T15:09:39.961Z,94.92
2023-08-11T15:12:42.521Z,95.49
2023-08-11T15:15:44.417Z,97.78
2023-08-11T15:18:46.296Z,96.80
2023-08-11T15:21:48.272Z,96.03
2023-08-11T15:24:50.220Z,96.23
2023-08-11T15:27:52.126Z,95.27
2023-08-11T15:30:54.098Z,95.08
2023-08-11T15:33:56.016Z,94.56
2023-08-11T15:36:57.895Z,94.15
2023-08-11T15:39:59.774Z,94.05
2023-08-11T15:43:01.885Z,93.06
2023-08-11T15:46:04.527Z,92.81
2023-08-11T15:49:06.621Z,92.53
2023-08-11T15:52:08.886Z,91.37
2023-08-11T15:55:11.068Z,91.30
2023-08-11T15:58:13.026Z,91.94
2023-08-11T16:01:15.071Z,91.52
2023-08-11T16:04:17.120Z,91.75
2023-08-11T16:07:19.106Z,91.97
2023-08-11T16:10:21.062Z,91.93
2023-08-11T16:13:22.964Z,91.78
2023-08-11T16:16:25.161Z,91.76
2023-08-11T16:19:27.139Z,91.64
2023-08-11T16:22:31.366Z,91.98
2023-08-11T16:25:33.339Z,92.31
2023-08-11T16:28:35.316Z,92.57
2023-08-11T16:31:37.226Z,93.10
2023-08-11T16:34:39.135Z,93.10
2023-08-11T16:37:41.167Z,92.67
2023-08-11T16:40:43.261Z,92.30
2023-08-11T16:43:45.983Z,92.33
2023-08-11T16:46:47.922Z,92.56
2023-08-11T16:49:51.447Z,92.53
2023-08-11T16:52:54.650Z,92.80
2023-08-11T16:55:56.628Z,92.63
2023-08-11T16:59:01.215Z,93.54
2023-08-11T17:02:03.129Z,93.61
2023-08-11T17:05:05.436Z,93.76
2023-08-11T17:08:09.922Z,93.77
2023-08-11T17:11:11.897Z,93.30
2023-08-11T17:14:13.820Z,92.95
2023-08-11T17:17:15.864Z,92.51
2023-08-11T17:20:17.994Z,92.69
2023-08-11T17:23:20.268Z,93.52
2023-08-11T17:26:22.590Z,93.07
2023-08-11T17:29:24.509Z,92.84
2023-08-11T17:32:26.362Z,92.13
2023-08-11T17:35:28.249Z,92.15
2023-08-11T17:38:30.821Z,91.88
2023-08-11T17:41:32.668Z,91.85
2023-08-11T17:44:34.659Z,91.38
2023-08-11T17:47:36.773Z,91.19
2023-08-11T17:50:39.834Z,91.12
2023-08-11T17:53:42.623Z,91.22
2023-08-11T17:56:47.338Z,91.00
2023-08-11T17:59:49.218Z,90.92
2023-08-11T18:02:51.577Z,91.17
2023-08-11T18:05:53.558Z,91.19
2023-08-11T18:08:55.697Z,90.93
2023-08-11T18:11:57.633Z,91.56
2023-08-11T18:15:01.560Z,91.96
2023-08-11T18:18:04.167Z,91.04
2023-08-11T18:21:15.295Z,90.79
2023-08-11T18:24:22.706Z,90.50
2023-08-11T18:27:24.682Z,91.07
2023-08-11T18:30:26.626Z,91.06
2023-08-11T18:33:28.577Z,90.89
2023-08-11T18:36:30.515Z,91.58
2023-08-11T18:39:32.418Z,91.48
2023-08-11T18:42:34.417Z,91.41
2023-08-11T18:45:36.312Z,91.84
2023-08-11T18:48:38.208Z,91.53
2023-08-11T18:51:41.401Z,91.67
2023-08-11T18:54:43.416Z,92.97
2023-08-11T18:57:45.352Z,94.55
2023-08-11T19:00:47.212Z,94.53
2023-08-11T19:03:49.186Z,93.64
2023-08-11T19:06:51.174Z,93.88
2023-08-11T19:09:53.107Z,93.96
2023-08-11T19:12:55.307Z,93.59
2023-08-11T19:15:57.382Z,93.67
2023-08-11T19:19:00.007Z,94.17
2023-08-11T19:22:02.003Z,93.61
2023-08-11T19:25:05.569Z,93.65
2023-08-11T19:28:08.446Z,94.03
2023-08-11T19:31:10.505Z,93.94
2023-08-11T19:34:12.685Z,94.62
2023-08-11T19:37:14.928Z,94.33
2023-08-11T19:40:16.983Z,95.64
2023-08-11T19:43:19.002Z,94.83
2023-08-11T19:46:21.014Z,94.97
2023-08-11T19:49:23.089Z,96.21
2023-08-11T19:52:24.944Z,95.54
2023-08-11T19:55:27.017Z,95.77
2023-08-11T19:58:28.880Z,97.00
2023-08-11T20:01:30.804Z,96.46
2023-08-11T20:04:32.763Z,95.66
2023-08-11T20:07:34.614Z,95.98
2023-08-11T20:10:36.604Z,95.80
2023-08-11T20:13:38.525Z,96.32
2023-08-11T20:16:40.477Z,96.67
2023-08-11T20:19:42.348Z,96.34
2023-08-11T20:22:44.956Z,97.34
2023-08-11T20:25:47.148Z,98.29
2023-08-11T20:28:49.121Z,97.89
2023-08-11T20:31:55.545Z,97.77
2023-08-11T20:34:57.471Z,98.52
2023-08-11T20:37:59.574Z,99.64
2023-08-11T20:41:01.448Z,98.53
2023-08-11T20:44:03.579Z,98.83
2023-08-11T20:47:05.671Z,99.80
2023-08-11T20:50:08.075Z,99.22
2023-08-11T20:53:10.303Z,100.00
2023-08-11T20:56:12.996Z,100.00
2023-08-11T20:59:14.940Z,100.00
2023-08-11T21:02:16.863Z,100.00
2023-08-11T21:05:18.733Z,100.00
2023-08-11T21:08:20.714Z,99.12
2023-08-11T21:11:22.607Z,98.36
2023-08-11T21:14:24.886Z,99.86
2023-08-11T21:17:26.839Z,99.36
2023-08-11T21:20:28.745Z,98.88
2023-08-11T21:23:30.590Z,98.76
2023-08-11T21:26:32.638Z,98.35
2023-08-11T21:29:34.577Z,98.31
2023-08-11T21:32:36.528Z,98.38
2023-08-11T21:35:38.921Z,99.02
2023-08-11T21:38:40.807Z,98.53
2023-08-11T21:41:42.641Z,98.53
2023-08-11T21:44:44.548Z,98.09
2023-08-11T21:47:46.880Z,98.29
2023-08-11T21:50:48.648Z,97.91
2023-08-11T21:53:50.596Z,97.50
2023-08-11T21:56:52.543Z,97.28
2023-08-11T21:59:54.505Z,97.34
2023-08-11T22:02:56.492Z,96.89
2023-08-11T22:05:58.927Z,96.93
2023-08-11T22:09:00.661Z,97.09
2023-08-11T22:12:02.595Z,96.63
2023-08-11T22:15:05.997Z,96.86
2023-08-11T22:18:07.928Z,97.01
2023-08-11T22:21:09.988Z,97.48
2023-08-11T22:24:12.365Z,97.44
2023-08-11T22:27:14.643Z,97.42
2023-08-11T22:30:17.329Z,96.57
2023-08-11T22:33:20.251Z,96.38
2023-08-11T22:36:22.171Z,96.03
2023-08-11T22:39:24.108Z,96.63
2023-08-11T22:42:27.551Z,97.36
2023-08-11T22:45:29.419Z,97.76
2023-08-11T22:48:31.465Z,98.13
2023-08-11T22:51:33.334Z,98.26
2023-08-11T22:54:35.250Z,98.26
2023-08-11T22:57:37.116Z,98.18
2023-08-11T23:00:39.574Z,97.87
2023-08-11T23:03:41.584Z,98.25
2023-08-11T23:06:43.574Z,98.95
2023-08-11T23:09:45.546Z,99.45
2023-08-11T23:12:47.439Z,99.62
2023-08-11T23:15:49.616Z,99.30
2023-08-11T23:18:51.696Z,100.00
2023-08-11T23:21:53.575Z,100.00
2023-08-11T23:24:55.612Z,100.00
2023-08-11T23:27:57.569Z,100.00
2023-08-11T23:30:59.460Z,100.00
2023-08-11T23:34:01.300Z,100.00
2023-08-11T23:37:03.223Z,100.00
2023-08-11T23:40:05.700Z,100.00
2023-08-11T23:43:07.823Z,100.00
2023-08-11T23:46:14.979Z,100.00
2023-08-11T23:49:17.182Z,100.00
2023-08-11T23:52:19.626Z,100.00
2023-08-11T23:55:21.574Z,100.00
2023-08-11T23:58:23.630Z,100.00
